sensor_id;sensor_type;location;lat;lon;timestamp;P1;durP1;ratioP1;P2;durP2;ratioP2
4700;SDS011;8724;51.272;6.554;2023-01-16T00:01:30;3.33;;;1.10;;
4700;SDS011;8724;51.272;6.554;2023-01-16T00:03:59;2.90;;;1.20;;
4700;SDS011;8724;51.272;6.554;2023-01-16T00:06:27;1.90;;;1.00;;
4700;SDS011;8724;51.272;6.554;2023-01-16T00:08:57;2.00;;;1.13;;
4700;SDS011;8724;51.272;6.554;2023-01-16T00:11:25;4.00;;;1.60;;
4700;SDS011;8724;51.272;6.554;2023-01-16T00:13:53;3.03;;;1.70;;
4700;SDS011;8724;51.272;6.554;2023-01-16T00:16:22;2.30;;;1.30;;
4700;SDS011;8724;51.272;6.554;2023-01-16T00:18:50;2.13;;;1.37;;
4700;SDS011;8724;51.272;6.554;2023-01-16T00:21:19;2.13;;;1.30;;
4700;SDS011;8724;51.272;6.554;2023-01-16T00:23:51;3.43;;;1.63;;
4700;SDS011;8724;51.272;6.554;2023-01-16T00:26:21;2.50;;;1.30;;
4700;SDS011;8724;51.272;6.554;2023-01-16T00:28:50;3.20;;;1.80;;
4700;SDS011;8724;51.272;6.554;2023-01-16T00:31:19;3.60;;;1.27;;
4700;SDS011;8724;51.272;6.554;2023-01-16T00:33:49;1.80;;;1.03;;
4700;SDS011;8724;51.272;6.554;2023-01-16T00:36:18;2.67;;;1.00;;
4700;SDS011;8724;51.272;6.554;2023-01-16T00:38:47;3.63;;;1.47;;
4700;SDS011;8724;51.272;6.554;2023-01-16T00:41:15;1.90;;;1.20;;
4700;SDS011;8724;51.272;6.554;2023-01-16T00:43:45;3.00;;;1.20;;
4700;SDS011;8724;51.272;6.554;2023-01-16T00:46:13;2.90;;;1.20;;
4700;SDS011;8724;51.272;6.554;2023-01-16T00:48:41;2.67;;;1.30;;
4700;SDS011;8724;51.272;6.554;2023-01-16T00:51:10;2.50;;;1.10;;
4700;SDS011;8724;51.272;6.554;2023-01-16T00:53:38;3.17;;;1.00;;
4700;SDS011;8724;51.272;6.554;2023-01-16T00:56:06;2.00;;;0.90;;
4700;SDS011;8724;51.272;6.554;2023-01-16T00:58:35;1.83;;;1.33;;
4700;SDS011;8724;51.272;6.554;2023-01-16T01:01:05;1.93;;;1.07;;
4700;SDS011;8724;51.272;6.554;2023-01-16T01:03:34;3.10;;;1.10;;
4700;SDS011;8724;51.272;6.554;2023-01-16T01:06:04;3.40;;;1.37;;
4700;SDS011;8724;51.272;6.554;2023-01-16T01:08:33;5.70;;;1.27;;
4700;SDS011;8724;51.272;6.554;2023-01-16T01:11:05;2.73;;;1.30;;
4700;SDS011;8724;51.272;6.554;2023-01-16T01:13:35;4.23;;;1.40;;
4700;SDS011;8724;51.272;6.554;2023-01-16T01:16:05;1.83;;;1.30;;
4700;SDS011;8724;51.272;6.554;2023-01-16T01:18:34;2.40;;;1.73;;
4700;SDS011;8724;51.272;6.554;2023-01-16T01:21:02;3.17;;;1.40;;
4700;SDS011;8724;51.272;6.554;2023-01-16T01:23:31;2.40;;;1.07;;
4700;SDS011;8724;51.272;6.554;2023-01-16T01:26:04;2.40;;;1.20;;
4700;SDS011;8724;51.272;6.554;2023-01-16T01:28:34;3.10;;;1.13;;
4700;SDS011;8724;51.272;6.554;2023-01-16T01:31:03;3.23;;;1.53;;
4700;SDS011;8724;51.272;6.554;2023-01-16T01:33:34;4.20;;;1.70;;
4700;SDS011;8724;51.272;6.554;2023-01-16T01:36:03;3.00;;;1.37;;
4700;SDS011;8724;51.272;6.554;2023-01-16T01:38:32;2.87;;;1.33;;
4700;SDS011;8724;51.272;6.554;2023-01-16T01:41:02;1.70;;;1.30;;
4700;SDS011;8724;51.272;6.554;2023-01-16T01:43:41;3.13;;;1.93;;
4700;SDS011;8724;51.272;6.554;2023-01-16T01:46:18;2.07;;;1.10;;
4700;SDS011;8724;51.272;6.554;2023-01-16T01:48:50;3.97;;;1.47;;
4700;SDS011;8724;51.272;6.554;2023-01-16T01:51:22;1.57;;;1.20;;
4700;SDS011;8724;51.272;6.554;2023-01-16T01:53:53;3.60;;;1.37;;
4700;SDS011;8724;51.272;6.554;2023-01-16T01:56:27;3.00;;;1.43;;
4700;SDS011;8724;51.272;6.554;2023-01-16T01:59:00;2.90;;;1.43;;
4700;SDS011;8724;51.272;6.554;2023-01-16T02:01:35;3.07;;;1.10;;
4700;SDS011;8724;51.272;6.554;2023-01-16T02:04:05;3.40;;;1.47;;
4700;SDS011;8724;51.272;6.554;2023-01-16T02:06:37;2.27;;;1.30;;
4700;SDS011;8724;51.272;6.554;2023-01-16T02:09:11;2.90;;;1.40;;
4700;SDS011;8724;51.272;6.554;2023-01-16T02:11:41;4.57;;;1.20;;
4700;SDS011;8724;51.272;6.554;2023-01-16T02:14:15;1.90;;;1.30;;
4700;SDS011;8724;51.272;6.554;2023-01-16T02:16:46;2.50;;;1.60;;
4700;SDS011;8724;51.272;6.554;2023-01-16T02:19:38;1.80;;;1.10;;
4700;SDS011;8724;51.272;6.554;2023-01-16T02:32:10;3.80;;;1.50;;
4700;SDS011;8724;51.272;6.554;2023-01-16T02:37:55;4.37;;;1.07;;
4700;SDS011;8724;51.272;6.554;2023-01-16T02:40:32;2.47;;;1.00;;
4700;SDS011;8724;51.272;6.554;2023-01-16T02:43:10;2.13;;;1.33;;
4700;SDS011;8724;51.272;6.554;2023-01-16T02:45:48;3.30;;;1.13;;
4700;SDS011;8724;51.272;6.554;2023-01-16T02:48:26;1.30;;;1.20;;
4700;SDS011;8724;51.272;6.554;2023-01-16T02:51:02;2.40;;;1.13;;
4700;SDS011;8724;51.272;6.554;2023-01-16T02:53:36;4.17;;;1.30;;
4700;SDS011;8724;51.272;6.554;2023-01-16T02:56:08;0.80;;;0.70;;
4700;SDS011;8724;51.272;6.554;2023-01-16T02:58:41;1.93;;;1.33;;
4700;SDS011;8724;51.272;6.554;2023-01-16T03:01:12;1.60;;;1.00;;
4700;SDS011;8724;51.272;6.554;2023-01-16T03:03:45;5.23;;;1.30;;
4700;SDS011;8724;51.272;6.554;2023-01-16T03:06:22;1.83;;;1.03;;
4700;SDS011;8724;51.272;6.554;2023-01-16T03:09:07;2.87;;;1.10;;
4700;SDS011;8724;51.272;6.554;2023-01-16T03:11:52;3.37;;;1.40;;
4700;SDS011;8724;51.272;6.554;2023-01-16T03:14:29;3.57;;;1.07;;
4700;SDS011;8724;51.272;6.554;2023-01-16T03:17:16;2.63;;;0.90;;
4700;SDS011;8724;51.272;6.554;2023-01-16T03:19:58;1.17;;;0.90;;
4700;SDS011;8724;51.272;6.554;2023-01-16T03:22:41;3.27;;;1.17;;
4700;SDS011;8724;51.272;6.554;2023-01-16T03:25:21;4.17;;;1.30;;
4700;SDS011;8724;51.272;6.554;2023-01-16T03:27:57;3.77;;;1.60;;
4700;SDS011;8724;51.272;6.554;2023-01-16T03:30:36;3.33;;;1.53;;
4700;SDS011;8724;51.272;6.554;2023-01-16T03:33:13;1.77;;;1.00;;
4700;SDS011;8724;51.272;6.554;2023-01-16T03:35:51;1.10;;;1.00;;
4700;SDS011;8724;51.272;6.554;2023-01-16T03:38:23;2.17;;;1.20;;
4700;SDS011;8724;51.272;6.554;2023-01-16T03:40:54;3.60;;;1.23;;
4700;SDS011;8724;51.272;6.554;2023-01-16T03:43:29;2.70;;;1.03;;
4700;SDS011;8724;51.272;6.554;2023-01-16T03:46:00;1.63;;;0.90;;
4700;SDS011;8724;51.272;6.554;2023-01-16T03:48:36;1.57;;;1.10;;
4700;SDS011;8724;51.272;6.554;2023-01-16T03:51:12;1.13;;;0.93;;
4700;SDS011;8724;51.272;6.554;2023-01-16T03:53:46;1.50;;;1.20;;
4700;SDS011;8724;51.272;6.554;2023-01-16T03:56:23;1.90;;;1.20;;
4700;SDS011;8724;51.272;6.554;2023-01-16T03:58:56;2.87;;;1.30;;
4700;SDS011;8724;51.272;6.554;2023-01-16T04:01:26;2.40;;;0.80;;
4700;SDS011;8724;51.272;6.554;2023-01-16T04:04:05;1.30;;;1.20;;
4700;SDS011;8724;51.272;6.554;2023-01-16T04:06:40;1.70;;;0.80;;
4700;SDS011;8724;51.272;6.554;2023-01-16T04:09:13;1.50;;;0.70;;
4700;SDS011;8724;51.272;6.554;2023-01-16T04:11:47;0.97;;;0.87;;
4700;SDS011;8724;51.272;6.554;2023-01-16T04:14:18;0.70;;;0.70;;
4700;SDS011;8724;51.272;6.554;2023-01-16T04:16:48;1.40;;;0.70;;
4700;SDS011;8724;51.272;6.554;2023-01-16T04:19:18;0.60;;;0.60;;
4700;SDS011;8724;51.272;6.554;2023-01-16T04:21:50;0.80;;;0.70;;
4700;SDS011;8724;51.272;6.554;2023-01-16T04:24:18;1.10;;;0.73;;
4700;SDS011;8724;51.272;6.554;2023-01-16T04:26:47;1.53;;;0.80;;
4700;SDS011;8724;51.272;6.554;2023-01-16T04:29:17;1.00;;;0.60;;
4700;SDS011;8724;51.272;6.554;2023-01-16T04:31:48;1.50;;;0.70;;
4700;SDS011;8724;51.272;6.554;2023-01-16T04:34:16;1.37;;;0.90;;
4700;SDS011;8724;51.272;6.554;2023-01-16T04:36:44;1.93;;;1.10;;
4700;SDS011;8724;51.272;6.554;2023-01-16T04:39:14;1.03;;;0.73;;
4700;SDS011;8724;51.272;6.554;2023-01-16T04:41:42;2.20;;;1.13;;
4700;SDS011;8724;51.272;6.554;2023-01-16T04:44:17;0.70;;;0.70;;
4700;SDS011;8724;51.272;6.554;2023-01-16T04:46:45;0.87;;;0.80;;
4700;SDS011;8724;51.272;6.554;2023-01-16T04:49:13;1.13;;;0.70;;
4700;SDS011;8724;51.272;6.554;2023-01-16T04:51:44;1.33;;;0.90;;
4700;SDS011;8724;51.272;6.554;2023-01-16T04:54:14;1.43;;;0.90;;
4700;SDS011;8724;51.272;6.554;2023-01-16T04:56:44;1.17;;;0.87;;
4700;SDS011;8724;51.272;6.554;2023-01-16T04:59:17;0.87;;;0.63;;
4700;SDS011;8724;51.272;6.554;2023-01-16T05:01:52;1.33;;;0.80;;
4700;SDS011;8724;51.272;6.554;2023-01-16T05:04:21;0.60;;;0.60;;
4700;SDS011;8724;51.272;6.554;2023-01-16T05:06:49;1.93;;;1.00;;
4700;SDS011;8724;51.272;6.554;2023-01-16T05:09:20;0.60;;;0.60;;
4700;SDS011;8724;51.272;6.554;2023-01-16T05:11:51;1.40;;;0.73;;
4700;SDS011;8724;51.272;6.554;2023-01-16T05:14:20;1.03;;;1.03;;
4700;SDS011;8724;51.272;6.554;2023-01-16T05:16:49;1.57;;;1.47;;
4700;SDS011;8724;51.272;6.554;2023-01-16T05:19:19;1.43;;;0.90;;
4700;SDS011;8724;51.272;6.554;2023-01-16T05:21:53;1.20;;;0.83;;
4700;SDS011;8724;51.272;6.554;2023-01-16T05:24:23;1.93;;;1.00;;
4700;SDS011;8724;51.272;6.554;2023-01-16T05:26:52;18.63;;;14.20;;
4700;SDS011;8724;51.272;6.554;2023-01-16T05:29:20;70.13;;;45.00;;
4700;SDS011;8724;51.272;6.554;2023-01-16T05:31:51;40.63;;;28.60;;
4700;SDS011;8724;51.272;6.554;2023-01-16T05:34:19;70.67;;;44.87;;
4700;SDS011;8724;51.272;6.554;2023-01-16T05:36:48;49.27;;;33.20;;
4700;SDS011;8724;51.272;6.554;2023-01-16T05:39:16;25.07;;;17.43;;
4700;SDS011;8724;51.272;6.554;2023-01-16T05:41:49;13.17;;;9.00;;
4700;SDS011;8724;51.272;6.554;2023-01-16T05:44:17;9.23;;;5.23;;
4700;SDS011;8724;51.272;6.554;2023-01-16T05:46:47;2.93;;;2.17;;
4700;SDS011;8724;51.272;6.554;2023-01-16T05:49:21;2.33;;;2.00;;
4700;SDS011;8724;51.272;6.554;2023-01-16T05:51:51;3.20;;;1.50;;
4700;SDS011;8724;51.272;6.554;2023-01-16T05:54:20;1.93;;;1.47;;
4700;SDS011;8724;51.272;6.554;2023-01-16T05:56:50;2.40;;;1.50;;
4700;SDS011;8724;51.272;6.554;2023-01-16T05:59:19;1.33;;;0.90;;
4700;SDS011;8724;51.272;6.554;2023-01-16T06:01:50;1.10;;;1.00;;
4700;SDS011;8724;51.272;6.554;2023-01-16T06:04:19;1.80;;;1.13;;
4700;SDS011;8724;51.272;6.554;2023-01-16T06:06:50;2.30;;;1.10;;
4700;SDS011;8724;51.272;6.554;2023-01-16T06:09:24;1.10;;;0.80;;
4700;SDS011;8724;51.272;6.554;2023-01-16T06:11:56;2.50;;;1.10;;
4700;SDS011;8724;51.272;6.554;2023-01-16T06:14:24;2.50;;;1.00;;
4700;SDS011;8724;51.272;6.554;2023-01-16T06:16:54;1.17;;;1.07;;
4700;SDS011;8724;51.272;6.554;2023-01-16T06:19:23;1.90;;;0.90;;
4700;SDS011;8724;51.272;6.554;2023-01-16T06:21:53;1.07;;;0.80;;
4700;SDS011;8724;51.272;6.554;2023-01-16T06:24:22;1.33;;;1.10;;
4700;SDS011;8724;51.272;6.554;2023-01-16T06:26:51;1.70;;;0.93;;
4700;SDS011;8724;51.272;6.554;2023-01-16T06:29:23;1.30;;;0.93;;
4700;SDS011;8724;51.272;6.554;2023-01-16T06:31:53;2.50;;;1.00;;
4700;SDS011;8724;51.272;6.554;2023-01-16T06:34:22;1.00;;;0.90;;
4700;SDS011;8724;51.272;6.554;2023-01-16T06:36:50;2.70;;;1.00;;
4700;SDS011;8724;51.272;6.554;2023-01-16T06:39:21;1.10;;;0.80;;
4700;SDS011;8724;51.272;6.554;2023-01-16T06:41:54;1.80;;;0.80;;
4700;SDS011;8724;51.272;6.554;2023-01-16T06:44:24;2.80;;;1.00;;
4700;SDS011;8724;51.272;6.554;2023-01-16T06:46:52;1.23;;;0.80;;
4700;SDS011;8724;51.272;6.554;2023-01-16T06:49:20;1.30;;;0.90;;
4700;SDS011;8724;51.272;6.554;2023-01-16T06:51:49;1.40;;;0.87;;
4700;SDS011;8724;51.272;6.554;2023-01-16T06:54:18;0.70;;;0.70;;
4700;SDS011;8724;51.272;6.554;2023-01-16T06:56:46;1.77;;;1.23;;
4700;SDS011;8724;51.272;6.554;2023-01-16T06:59:14;1.10;;;0.90;;
4700;SDS011;8724;51.272;6.554;2023-01-16T07:01:45;1.33;;;1.00;;
4700;SDS011;8724;51.272;6.554;2023-01-16T07:04:14;1.43;;;0.80;;
4700;SDS011;8724;51.272;6.554;2023-01-16T07:06:42;2.87;;;1.00;;
4700;SDS011;8724;51.272;6.554;2023-01-16T07:09:11;2.70;;;1.13;;
4700;SDS011;8724;51.272;6.554;2023-01-16T07:11:40;1.20;;;0.90;;
4700;SDS011;8724;51.272;6.554;2023-01-16T07:14:08;2.03;;;1.10;;
4700;SDS011;8724;51.272;6.554;2023-01-16T07:16:56;11.63;;;9.67;;
4700;SDS011;8724;51.272;6.554;2023-01-16T07:19:42;37.70;;;27.57;;
4700;SDS011;8724;51.272;6.554;2023-01-16T07:22:27;13.60;;;8.80;;
4700;SDS011;8724;51.272;6.554;2023-01-16T07:25:11;4.30;;;3.53;;
4700;SDS011;8724;51.272;6.554;2023-01-16T07:27:45;2.10;;;1.73;;
4700;SDS011;8724;51.272;6.554;2023-01-16T07:30:16;1.80;;;1.70;;
4700;SDS011;8724;51.272;6.554;2023-01-16T07:32:47;3.90;;;1.63;;
4700;SDS011;8724;51.272;6.554;2023-01-16T07:35:17;2.90;;;1.13;;
4700;SDS011;8724;51.272;6.554;2023-01-16T07:37:46;1.27;;;1.10;;
4700;SDS011;8724;51.272;6.554;2023-01-16T07:40:17;3.17;;;1.00;;
4700;SDS011;8724;51.272;6.554;2023-01-16T07:42:46;3.03;;;1.03;;
4700;SDS011;8724;51.272;6.554;2023-01-16T07:45:17;1.83;;;0.80;;
4700;SDS011;8724;51.272;6.554;2023-01-16T07:47:49;2.00;;;1.03;;
4700;SDS011;8724;51.272;6.554;2023-01-16T07:50:17;1.00;;;0.87;;
4700;SDS011;8724;51.272;6.554;2023-01-16T07:52:49;1.40;;;1.00;;
4700;SDS011;8724;51.272;6.554;2023-01-16T07:55:19;1.83;;;1.07;;
4700;SDS011;8724;51.272;6.554;2023-01-16T07:57:48;2.23;;;1.20;;
4700;SDS011;8724;51.272;6.554;2023-01-16T08:00:17;2.20;;;1.10;;
4700;SDS011;8724;51.272;6.554;2023-01-16T08:02:49;3.27;;;1.33;;
4700;SDS011;8724;51.272;6.554;2023-01-16T08:05:18;2.07;;;1.70;;
4700;SDS011;8724;51.272;6.554;2023-01-16T08:07:48;1.63;;;1.53;;
4700;SDS011;8724;51.272;6.554;2023-01-16T08:10:19;1.53;;;1.43;;
4700;SDS011;8724;51.272;6.554;2023-01-16T08:12:48;4.27;;;2.13;;
4700;SDS011;8724;51.272;6.554;2023-01-16T08:15:17;1.93;;;1.43;;
4700;SDS011;8724;51.272;6.554;2023-01-16T08:17:50;4.73;;;3.50;;
4700;SDS011;8724;51.272;6.554;2023-01-16T08:20:19;33.60;;;24.80;;
4700;SDS011;8724;51.272;6.554;2023-01-16T08:22:49;21.60;;;17.00;;
4700;SDS011;8724;51.272;6.554;2023-01-16T08:25:20;11.03;;;7.10;;
4700;SDS011;8724;51.272;6.554;2023-01-16T08:27:50;5.10;;;3.53;;
4700;SDS011;8724;51.272;6.554;2023-01-16T08:30:19;3.50;;;2.43;;
4700;SDS011;8724;51.272;6.554;2023-01-16T08:32:51;3.20;;;1.43;;
4700;SDS011;8724;51.272;6.554;2023-01-16T08:35:26;1.33;;;1.20;;
4700;SDS011;8724;51.272;6.554;2023-01-16T08:37:57;1.60;;;1.10;;
4700;SDS011;8724;51.272;6.554;2023-01-16T08:40:25;4.90;;;1.40;;
4700;SDS011;8724;51.272;6.554;2023-01-16T08:42:55;2.87;;;1.40;;
4700;SDS011;8724;51.272;6.554;2023-01-16T08:45:41;3.40;;;1.00;;
4700;SDS011;8724;51.272;6.554;2023-01-16T08:48:28;1.20;;;1.10;;
4700;SDS011;8724;51.272;6.554;2023-01-16T08:51:15;2.17;;;1.20;;
4700;SDS011;8724;51.272;6.554;2023-01-16T08:53:52;2.20;;;1.40;;
4700;SDS011;8724;51.272;6.554;2023-01-16T08:56:21;2.00;;;1.00;;
4700;SDS011;8724;51.272;6.554;2023-01-16T08:58:50;2.03;;;1.03;;
4700;SDS011;8724;51.272;6.554;2023-01-16T09:01:18;1.27;;;0.90;;
4700;SDS011;8724;51.272;6.554;2023-01-16T09:03:48;2.90;;;1.17;;
4700;SDS011;8724;51.272;6.554;2023-01-16T09:06:17;2.07;;;1.40;;
4700;SDS011;8724;51.272;6.554;2023-01-16T09:08:46;1.53;;;0.90;;
4700;SDS011;8724;51.272;6.554;2023-01-16T09:11:14;1.67;;;1.23;;
4700;SDS011;8724;51.272;6.554;2023-01-16T09:14:00;1.60;;;1.30;;
4700;SDS011;8724;51.272;6.554;2023-01-16T09:16:32;1.00;;;0.90;;
4700;SDS011;8724;51.272;6.554;2023-01-16T09:19:02;4.47;;;1.00;;
4700;SDS011;8724;51.272;6.554;2023-01-16T09:21:30;1.00;;;0.83;;
4700;SDS011;8724;51.272;6.554;2023-01-16T09:24:05;2.43;;;1.10;;
4700;SDS011;8724;51.272;6.554;2023-01-16T09:26:35;2.00;;;1.10;;
4700;SDS011;8724;51.272;6.554;2023-01-16T09:29:03;1.20;;;0.97;;
4700;SDS011;8724;51.272;6.554;2023-01-16T09:31:31;3.00;;;1.47;;
4700;SDS011;8724;51.272;6.554;2023-01-16T09:34:01;1.37;;;0.80;;
4700;SDS011;8724;51.272;6.554;2023-01-16T09:36:30;2.60;;;0.80;;
4700;SDS011;8724;51.272;6.554;2023-01-16T09:38:58;0.60;;;0.60;;
4700;SDS011;8724;51.272;6.554;2023-01-16T09:41:27;1.00;;;0.77;;
4700;SDS011;8724;51.272;6.554;2023-01-16T09:44:19;1.43;;;1.10;;
4700;SDS011;8724;51.272;6.554;2023-01-16T09:46:48;1.87;;;0.80;;
4700;SDS011;8724;51.272;6.554;2023-01-16T09:49:22;1.33;;;0.97;;
4700;SDS011;8724;51.272;6.554;2023-01-16T09:51:54;0.93;;;0.60;;
4700;SDS011;8724;51.272;6.554;2023-01-16T09:54:44;0.83;;;0.70;;
4700;SDS011;8724;51.272;6.554;2023-01-16T09:57:34;1.93;;;1.10;;
4700;SDS011;8724;51.272;6.554;2023-01-16T10:00:21;1.30;;;1.20;;
4700;SDS011;8724;51.272;6.554;2023-01-16T10:02:54;1.30;;;0.90;;
4700;SDS011;8724;51.272;6.554;2023-01-16T10:05:24;0.90;;;0.87;;
4700;SDS011;8724;51.272;6.554;2023-01-16T10:08:04;1.63;;;1.53;;
4700;SDS011;8724;51.272;6.554;2023-01-16T10:10:44;1.17;;;0.90;;
4700;SDS011;8724;51.272;6.554;2023-01-16T10:13:24;1.43;;;1.03;;
4700;SDS011;8724;51.272;6.554;2023-01-16T10:16:07;1.90;;;1.03;;
4700;SDS011;8724;51.272;6.554;2023-01-16T10:18:46;1.97;;;1.23;;
4700;SDS011;8724;51.272;6.554;2023-01-16T10:21:25;1.53;;;1.10;;
4700;SDS011;8724;51.272;6.554;2023-01-16T10:24:05;2.40;;;1.50;;
4700;SDS011;8724;51.272;6.554;2023-01-16T10:26:43;1.83;;;0.97;;
4700;SDS011;8724;51.272;6.554;2023-01-16T10:29:21;1.77;;;1.17;;
4700;SDS011;8724;51.272;6.554;2023-01-16T10:31:56;1.20;;;1.10;;
4700;SDS011;8724;51.272;6.554;2023-01-16T10:34:28;0.90;;;0.90;;
4700;SDS011;8724;51.272;6.554;2023-01-16T10:37:02;1.80;;;0.90;;
4700;SDS011;8724;51.272;6.554;2023-01-16T10:39:34;1.00;;;0.90;;
4700;SDS011;8724;51.272;6.554;2023-01-16T10:42:11;0.73;;;0.73;;
4700;SDS011;8724;51.272;6.554;2023-01-16T10:45:09;0.90;;;0.90;;
4700;SDS011;8724;51.272;6.554;2023-01-16T10:47:58;27.93;;;22.63;;
4700;SDS011;8724;51.272;6.554;2023-01-16T10:50:45;26.40;;;19.10;;
4700;SDS011;8724;51.272;6.554;2023-01-16T10:53:16;9.40;;;8.17;;
4700;SDS011;8724;51.272;6.554;2023-01-16T10:55:46;5.80;;;5.00;;
4700;SDS011;8724;51.272;6.554;2023-01-16T10:58:21;2.20;;;2.00;;
4700;SDS011;8724;51.272;6.554;2023-01-16T11:00:54;2.10;;;1.73;;
4700;SDS011;8724;51.272;6.554;2023-01-16T11:03:32;1.27;;;1.17;;
4700;SDS011;8724;51.272;6.554;2023-01-16T11:06:06;1.53;;;1.10;;
4700;SDS011;8724;51.272;6.554;2023-01-16T11:08:39;1.03;;;1.03;;
4700;SDS011;8724;51.272;6.554;2023-01-16T11:11:10;1.53;;;0.67;;
4700;SDS011;8724;51.272;6.554;2023-01-16T11:13:53;0.70;;;0.60;;
4700;SDS011;8724;51.272;6.554;2023-01-16T11:16:40;0.97;;;0.70;;
4700;SDS011;8724;51.272;6.554;2023-01-16T11:19:27;0.80;;;0.80;;
4700;SDS011;8724;51.272;6.554;2023-01-16T11:21:59;8.13;;;7.20;;
4700;SDS011;8724;51.272;6.554;2023-01-16T11:24:32;62.07;;;45.07;;
4700;SDS011;8724;51.272;6.554;2023-01-16T11:27:04;19.53;;;15.30;;
4700;SDS011;8724;51.272;6.554;2023-01-16T11:29:36;8.87;;;6.20;;
4700;SDS011;8724;51.272;6.554;2023-01-16T11:32:09;4.10;;;3.70;;
4700;SDS011;8724;51.272;6.554;2023-01-16T11:34:43;3.20;;;2.00;;
4700;SDS011;8724;51.272;6.554;2023-01-16T11:37:15;1.50;;;1.00;;
4700;SDS011;8724;51.272;6.554;2023-01-16T11:39:47;0.80;;;0.80;;
4700;SDS011;8724;51.272;6.554;2023-01-16T11:42:17;1.40;;;1.30;;
4700;SDS011;8724;51.272;6.554;2023-01-16T11:45:04;1.20;;;0.90;;
4700;SDS011;8724;51.272;6.554;2023-01-16T11:48:01;0.67;;;0.67;;
4700;SDS011;8724;51.272;6.554;2023-01-16T11:50:50;0.90;;;0.90;;
4700;SDS011;8724;51.272;6.554;2023-01-16T11:53:20;1.07;;;0.80;;
4700;SDS011;8724;51.272;6.554;2023-01-16T11:55:54;0.90;;;0.90;;
4700;SDS011;8724;51.272;6.554;2023-01-16T11:58:35;1.00;;;0.90;;
4700;SDS011;8724;51.272;6.554;2023-01-16T12:01:14;2.87;;;1.50;;
4700;SDS011;8724;51.272;6.554;2023-01-16T12:03:49;0.90;;;0.90;;
4700;SDS011;8724;51.272;6.554;2023-01-16T12:06:43;1.50;;;1.30;;
4700;SDS011;8724;51.272;6.554;2023-01-16T12:12:28;1.33;;;1.20;;
4700;SDS011;8724;51.272;6.554;2023-01-16T12:15:20;1.10;;;1.00;;
4700;SDS011;8724;51.272;6.554;2023-01-16T12:18:04;1.00;;;0.90;;
4700;SDS011;8724;51.272;6.554;2023-01-16T12:20:43;7.10;;;5.57;;
4700;SDS011;8724;51.272;6.554;2023-01-16T12:23:23;20.73;;;17.60;;
4700;SDS011;8724;51.272;6.554;2023-01-16T12:26:24;9.87;;;8.20;;
4700;SDS011;8724;51.272;6.554;2023-01-16T12:29:02;5.63;;;4.43;;
4700;SDS011;8724;51.272;6.554;2023-01-16T12:31:47;4.33;;;3.30;;
4700;SDS011;8724;51.272;6.554;2023-01-16T12:34:48;1.73;;;1.60;;
4700;SDS011;8724;51.272;6.554;2023-01-16T12:37:34;2.90;;;2.43;;
4700;SDS011;8724;51.272;6.554;2023-01-16T12:40:25;5.23;;;1.87;;
4700;SDS011;8724;51.272;6.554;2023-01-16T12:43:04;2.77;;;1.90;;
4700;SDS011;8724;51.272;6.554;2023-01-16T12:45:51;1.50;;;1.40;;
4700;SDS011;8724;51.272;6.554;2023-01-16T12:48:27;2.37;;;1.50;;
4700;SDS011;8724;51.272;6.554;2023-01-16T12:51:24;0.90;;;0.90;;
4700;SDS011;8724;51.272;6.554;2023-01-16T12:54:04;1.40;;;1.20;;
4700;SDS011;8724;51.272;6.554;2023-01-16T12:56:58;1.20;;;1.10;;
4700;SDS011;8724;51.272;6.554;2023-01-16T13:00:04;1.53;;;1.43;;
4700;SDS011;8724;51.272;6.554;2023-01-16T13:02:41;0.90;;;0.90;;
4700;SDS011;8724;51.272;6.554;2023-01-16T13:05:15;1.00;;;1.00;;
4700;SDS011;8724;51.272;6.554;2023-01-16T13:07:48;2.60;;;0.90;;
4700;SDS011;8724;51.272;6.554;2023-01-16T13:10:22;1.03;;;0.90;;
4700;SDS011;8724;51.272;6.554;2023-01-16T13:13:14;1.27;;;1.17;;
4700;SDS011;8724;51.272;6.554;2023-01-16T13:15:51;1.83;;;0.80;;
4700;SDS011;8724;51.272;6.554;2023-01-16T13:18:29;0.90;;;0.90;;
4700;SDS011;8724;51.272;6.554;2023-01-16T13:21:02;0.80;;;0.80;;
4700;SDS011;8724;51.272;6.554;2023-01-16T13:23:37;2.30;;;0.90;;
4700;SDS011;8724;51.272;6.554;2023-01-16T13:26:11;1.53;;;0.70;;
4700;SDS011;8724;51.272;6.554;2023-01-16T13:28:43;1.60;;;1.17;;
4700;SDS011;8724;51.272;6.554;2023-01-16T13:31:23;1.17;;;1.07;;
4700;SDS011;8724;51.272;6.554;2023-01-16T13:34:00;1.10;;;1.10;;
4700;SDS011;8724;51.272;6.554;2023-01-16T13:36:41;2.20;;;1.10;;
4700;SDS011;8724;51.272;6.554;2023-01-16T13:39:42;0.63;;;0.63;;
4700;SDS011;8724;51.272;6.554;2023-01-16T13:42:36;1.30;;;1.10;;
4700;SDS011;8724;51.272;6.554;2023-01-16T13:45:15;3.43;;;1.10;;
4700;SDS011;8724;51.272;6.554;2023-01-16T13:48:18;1.20;;;1.00;;
4700;SDS011;8724;51.272;6.554;2023-01-16T13:50:52;1.00;;;0.80;;
4700;SDS011;8724;51.272;6.554;2023-01-16T13:53:28;0.70;;;0.70;;
4700;SDS011;8724;51.272;6.554;2023-01-16T13:56:03;2.03;;;1.07;;
4700;SDS011;8724;51.272;6.554;2023-01-16T13:58:37;3.43;;;3.10;;
4700;SDS011;8724;51.272;6.554;2023-01-16T14:01:07;4.33;;;3.50;;
4700;SDS011;8724;51.272;6.554;2023-01-16T14:04:15;32.70;;;26.07;;
4700;SDS011;8724;51.272;6.554;2023-01-16T14:06:58;16.00;;;12.73;;
4700;SDS011;8724;51.272;6.554;2023-01-16T14:09:58;9.97;;;7.90;;
4700;SDS011;8724;51.272;6.554;2023-01-16T14:12:34;4.50;;;3.40;;
4700;SDS011;8724;51.272;6.554;2023-01-16T14:15:13;2.63;;;2.00;;
4700;SDS011;8724;51.272;6.554;2023-01-16T14:18:16;1.93;;;1.50;;
4700;SDS011;8724;51.272;6.554;2023-01-16T14:20:50;1.47;;;1.00;;
4700;SDS011;8724;51.272;6.554;2023-01-16T14:23:23;1.03;;;0.90;;
4700;SDS011;8724;51.272;6.554;2023-01-16T14:26:15;1.57;;;0.90;;
4700;SDS011;8724;51.272;6.554;2023-01-16T14:28:46;2.00;;;0.80;;
4700;SDS011;8724;51.272;6.554;2023-01-16T14:31:21;0.70;;;0.70;;
4700;SDS011;8724;51.272;6.554;2023-01-16T14:33:53;1.07;;;0.70;;
4700;SDS011;8724;51.272;6.554;2023-01-16T14:36:23;0.90;;;0.90;;
4700;SDS011;8724;51.272;6.554;2023-01-16T14:38:55;0.80;;;0.70;;
4700;SDS011;8724;51.272;6.554;2023-01-16T14:41:27;1.87;;;0.90;;
4700;SDS011;8724;51.272;6.554;2023-01-16T14:44:16;0.80;;;0.80;;
4700;SDS011;8724;51.272;6.554;2023-01-16T14:47:11;0.90;;;0.77;;
4700;SDS011;8724;51.272;6.554;2023-01-16T14:50:10;0.80;;;0.80;;
4700;SDS011;8724;51.272;6.554;2023-01-16T14:53:04;0.80;;;0.77;;
4700;SDS011;8724;51.272;6.554;2023-01-16T14:56:04;1.53;;;1.13;;
4700;SDS011;8724;51.272;6.554;2023-01-16T14:58:39;0.90;;;0.90;;
4700;SDS011;8724;51.272;6.554;2023-01-16T15:01:15;1.53;;;0.90;;
4700;SDS011;8724;51.272;6.554;2023-01-16T15:04:21;2.57;;;1.30;;
4700;SDS011;8724;51.272;6.554;2023-01-16T15:06:53;1.10;;;1.00;;
4700;SDS011;8724;51.272;6.554;2023-01-16T15:09:27;1.03;;;1.00;;
4700;SDS011;8724;51.272;6.554;2023-01-16T15:11:59;1.93;;;1.00;;
4700;SDS011;8724;51.272;6.554;2023-01-16T15:14:28;15.83;;;11.47;;
4700;SDS011;8724;51.272;6.554;2023-01-16T15:20:16;32.87;;;25.53;;
4700;SDS011;8724;51.272;6.554;2023-01-16T15:23:05;17.67;;;13.67;;
4700;SDS011;8724;51.272;6.554;2023-01-16T15:25:56;13.13;;;7.40;;
4700;SDS011;8724;51.272;6.554;2023-01-16T15:28:41;3.70;;;3.40;;
4700;SDS011;8724;51.272;6.554;2023-01-16T15:31:26;3.30;;;2.00;;
4700;SDS011;8724;51.272;6.554;2023-01-16T15:33:58;1.47;;;1.10;;
4700;SDS011;8724;51.272;6.554;2023-01-16T15:36:34;1.30;;;1.20;;
4700;SDS011;8724;51.272;6.554;2023-01-16T15:39:16;1.70;;;1.30;;
4700;SDS011;8724;51.272;6.554;2023-01-16T15:41:50;2.10;;;1.33;;
4700;SDS011;8724;51.272;6.554;2023-01-16T15:44:42;1.10;;;1.10;;
4700;SDS011;8724;51.272;6.554;2023-01-16T15:47:41;1.83;;;1.70;;
4700;SDS011;8724;51.272;6.554;2023-01-16T15:50:23;7.73;;;6.40;;
4700;SDS011;8724;51.272;6.554;2023-01-16T15:52:57;16.60;;;12.43;;
4700;SDS011;8724;51.272;6.554;2023-01-16T15:55:28;22.37;;;14.20;;
4700;SDS011;8724;51.272;6.554;2023-01-16T15:58:03;18.80;;;11.37;;
4700;SDS011;8724;51.272;6.554;2023-01-16T16:00:37;9.60;;;7.63;;
4700;SDS011;8724;51.272;6.554;2023-01-16T16:03:10;6.90;;;5.57;;
4700;SDS011;8724;51.272;6.554;2023-01-16T16:05:43;6.23;;;5.43;;
4700;SDS011;8724;51.272;6.554;2023-01-16T16:08:14;6.20;;;5.40;;
4700;SDS011;8724;51.272;6.554;2023-01-16T16:10:46;4.87;;;3.80;;
4700;SDS011;8724;51.272;6.554;2023-01-16T16:13:33;3.27;;;3.07;;
4700;SDS011;8724;51.272;6.554;2023-01-16T16:16:14;2.70;;;2.50;;
4700;SDS011;8724;51.272;6.554;2023-01-16T16:19:29;3.20;;;1.80;;
4700;SDS011;8724;51.272;6.554;2023-01-16T16:22:00;2.60;;;2.37;;